Kimballs, Vermont
Current Conditions -  °F | °C
As of 11:01 AM on Monday 24 Nov 2014 (Local Time) from KBTV Reporting Station
Broken Clouds Broken Clouds  
Wind Chill: 59°   Ceiling: 1400
Heat Index: 59°   Visibility: 10mi
Dew Point: 54°   Wind: 17mph
Humidity: 83%   Direction: 180°S
Pressure: 29.48"   Gusts: 25mph
Location:  44.2438°N, 73.1915°W
Report Text: KBTV 241601Z 18015G22KT 10SM BKN014 BKN021 15/12 A2948 RMK AO2 T01500122
Loading
Personal Weather Stations






























Interactive Weather Map New forecast layout! Learn more

10-Day Weather Forecast

Advertisements
Track Severe Weather on mobile